sensor_id;sensor_type;location;lat;lon;timestamp;temperature;humidity
6357;DHT22;3211;53.452;-2.264;2023-06-19T00:00:21;17.70;99.90
6357;DHT22;3211;53.452;-2.264;2023-06-19T00:03:03;17.50;99.90
6357;DHT22;3211;53.452;-2.264;2023-06-19T00:05:45;17.50;99.90
6357;DHT22;3211;53.452;-2.264;2023-06-19T00:08:27;17.40;99.90
6357;DHT22;3211;53.452;-2.264;2023-06-19T00:11:10;17.30;99.90
6357;DHT22;3211;53.452;-2.264;2023-06-19T00:13:52;17.30;99.90
6357;DHT22;3211;53.452;-2.264;2023-06-19T00:16:34;17.40;99.90
6357;DHT22;3211;53.452;-2.264;2023-06-19T00:19:16;17.30;99.90
6357;DHT22;3211;53.452;-2.264;2023-06-19T00:21:59;17.30;99.90
6357;DHT22;3211;53.452;-2.264;2023-06-19T00:24:41;17.40;99.90
6357;DHT22;3211;53.452;-2.264;2023-06-19T00:27:24;17.50;99.90
6357;DHT22;3211;53.452;-2.264;2023-06-19T00:30:08;17.50;99.90
6357;DHT22;3211;53.452;-2.264;2023-06-19T00:32:50;17.40;99.90
6357;DHT22;3211;53.452;-2.264;2023-06-19T00:35:34;17.50;99.90
6357;DHT22;3211;53.452;-2.264;2023-06-19T00:38:16;17.30;99.90
6357;DHT22;3211;53.452;-2.264;2023-06-19T00:40:58;17.40;99.90
6357;DHT22;3211;53.452;-2.264;2023-06-19T00:43:41;17.10;99.90
6357;DHT22;3211;53.452;-2.264;2023-06-19T00:46:23;17.10;99.90
6357;DHT22;3211;53.452;-2.264;2023-06-19T00:49:05;17.10;99.90
6357;DHT22;3211;53.452;-2.264;2023-06-19T00:51:47;17.00;99.90
6357;DHT22;3211;53.452;-2.264;2023-06-19T00:54:30;17.00;99.90
6357;DHT22;3211;53.452;-2.264;2023-06-19T00:57:12;17.00;99.90
6357;DHT22;3211;53.452;-2.264;2023-06-19T00:59:57;17.00;99.90
6357;DHT22;3211;53.452;-2.264;2023-06-19T01:02:39;17.10;99.90
6357;DHT22;3211;53.452;-2.264;2023-06-19T01:05:21;17.10;99.90
6357;DHT22;3211;53.452;-2.264;2023-06-19T01:08:10;17.10;99.90
6357;DHT22;3211;53.452;-2.264;2023-06-19T01:10:56;17.10;99.90
6357;DHT22;3211;53.452;-2.264;2023-06-19T01:13:44;17.20;99.90
6357;DHT22;3211;53.452;-2.264;2023-06-19T01:16:29;17.10;99.90
6357;DHT22;3211;53.452;-2.264;2023-06-19T01:19:16;17.10;99.90
6357;DHT22;3211;53.452;-2.264;2023-06-19T01:22:03;17.10;99.90
6357;DHT22;3211;53.452;-2.264;2023-06-19T01:24:46;17.20;99.90
6357;DHT22;3211;53.452;-2.264;2023-06-19T01:27:28;17.20;99.90
6357;DHT22;3211;53.452;-2.264;2023-06-19T01:30:12;17.20;99.90
6357;DHT22;3211;53.452;-2.264;2023-06-19T01:32:58;17.10;99.90
6357;DHT22;3211;53.452;-2.264;2023-06-19T01:35:43;17.10;99.90
6357;DHT22;3211;53.452;-2.264;2023-06-19T01:38:27;17.10;99.90
6357;DHT22;3211;53.452;-2.264;2023-06-19T01:41:11;17.00;99.90
6357;DHT22;3211;53.452;-2.264;2023-06-19T01:43:54;17.00;99.90
6357;DHT22;3211;53.452;-2.264;2023-06-19T01:46:36;17.10;99.90
6357;DHT22;3211;53.452;-2.264;2023-06-19T01:49:18;17.10;99.90
6357;DHT22;3211;53.452;-2.264;2023-06-19T01:52:00;17.10;99.90
6357;DHT22;3211;53.452;-2.264;2023-06-19T01:54:43;17.10;99.90
6357;DHT22;3211;53.452;-2.264;2023-06-19T01:57:25;17.10;99.90
6357;DHT22;3211;53.452;-2.264;2023-06-19T02:00:08;17.10;99.90
6357;DHT22;3211;53.452;-2.264;2023-06-19T02:02:50;17.10;99.90
6357;DHT22;3211;53.452;-2.264;2023-06-19T02:05:33;17.00;99.90
6357;DHT22;3211;53.452;-2.264;2023-06-19T02:08:19;17.20;99.90
6357;DHT22;3211;53.452;-2.264;2023-06-19T02:11:03;17.20;99.90
6357;DHT22;3211;53.452;-2.264;2023-06-19T02:13:44;17.20;99.90
6357;DHT22;3211;53.452;-2.264;2023-06-19T02:16:26;17.20;99.90
6357;DHT22;3211;53.452;-2.264;2023-06-19T02:19:09;17.00;99.90
6357;DHT22;3211;53.452;-2.264;2023-06-19T02:21:51;17.10;99.90
6357;DHT22;3211;53.452;-2.264;2023-06-19T02:24:33;17.00;99.90
6357;DHT22;3211;53.452;-2.264;2023-06-19T02:27:16;17.00;99.90
6357;DHT22;3211;53.452;-2.264;2023-06-19T02:29:58;17.00;99.90
6357;DHT22;3211;53.452;-2.264;2023-06-19T02:32:40;17.10;99.90
6357;DHT22;3211;53.452;-2.264;2023-06-19T02:35:22;17.00;99.90
6357;DHT22;3211;53.452;-2.264;2023-06-19T02:38:04;16.80;99.90
6357;DHT22;3211;53.452;-2.264;2023-06-19T02:40:46;16.80;99.90
6357;DHT22;3211;53.452;-2.264;2023-06-19T02:43:29;16.90;99.90
6357;DHT22;3211;53.452;-2.264;2023-06-19T02:46:11;16.80;99.90
6357;DHT22;3211;53.452;-2.264;2023-06-19T02:48:53;16.70;99.90
6357;DHT22;3211;53.452;-2.264;2023-06-19T02:51:35;16.70;99.90
6357;DHT22;3211;53.452;-2.264;2023-06-19T02:54:17;16.60;99.90
6357;DHT22;3211;53.452;-2.264;2023-06-19T02:56:59;16.60;99.90
6357;DHT22;3211;53.452;-2.264;2023-06-19T02:59:43;16.60;99.90
6357;DHT22;3211;53.452;-2.264;2023-06-19T03:02:26;16.70;99.90
6357;DHT22;3211;53.452;-2.264;2023-06-19T03:05:08;16.60;99.90
6357;DHT22;3211;53.452;-2.264;2023-06-19T03:07:50;16.70;99.90
6357;DHT22;3211;53.452;-2.264;2023-06-19T03:10:32;16.70;99.90
6357;DHT22;3211;53.452;-2.264;2023-06-19T03:13:14;16.70;99.90
6357;DHT22;3211;53.452;-2.264;2023-06-19T03:15:58;16.70;99.90
6357;DHT22;3211;53.452;-2.264;2023-06-19T03:18:39;16.70;99.90
6357;DHT22;3211;53.452;-2.264;2023-06-19T03:21:21;16.70;99.90
6357;DHT22;3211;53.452;-2.264;2023-06-19T03:24:04;16.70;99.90
6357;DHT22;3211;53.452;-2.264;2023-06-19T03:26:46;16.70;99.90
6357;DHT22;3211;53.452;-2.264;2023-06-19T03:29:28;16.50;99.90
6357;DHT22;3211;53.452;-2.264;2023-06-19T03:32:11;16.60;99.90
6357;DHT22;3211;53.452;-2.264;2023-06-19T03:34:53;16.40;99.90
6357;DHT22;3211;53.452;-2.264;2023-06-19T03:37:36;16.30;99.90
6357;DHT22;3211;53.452;-2.264;2023-06-19T03:40:18;16.30;99.90
6357;DHT22;3211;53.452;-2.264;2023-06-19T03:43:00;16.30;99.90
6357;DHT22;3211;53.452;-2.264;2023-06-19T03:45:41;16.20;99.90
6357;DHT22;3211;53.452;-2.264;2023-06-19T03:48:25;16.20;99.90
6357;DHT22;3211;53.452;-2.264;2023-06-19T03:51:07;16.30;99.90
6357;DHT22;3211;53.452;-2.264;2023-06-19T03:53:49;16.20;99.90
6357;DHT22;3211;53.452;-2.264;2023-06-19T03:56:31;16.20;99.90
6357;DHT22;3211;53.452;-2.264;2023-06-19T03:59:13;16.20;99.90
6357;DHT22;3211;53.452;-2.264;2023-06-19T04:01:55;16.10;99.90
6357;DHT22;3211;53.452;-2.264;2023-06-19T04:04:38;16.10;99.90
6357;DHT22;3211;53.452;-2.264;2023-06-19T04:07:20;16.20;99.90
6357;DHT22;3211;53.452;-2.264;2023-06-19T04:10:02;16.20;99.90
6357;DHT22;3211;53.452;-2.264;2023-06-19T04:12:44;16.20;99.90
6357;DHT22;3211;53.452;-2.264;2023-06-19T04:15:26;16.20;99.90
6357;DHT22;3211;53.452;-2.264;2023-06-19T04:18:08;16.10;99.90
6357;DHT22;3211;53.452;-2.264;2023-06-19T04:20:52;16.10;99.90
6357;DHT22;3211;53.452;-2.264;2023-06-19T04:23:34;16.10;99.90
6357;DHT22;3211;53.452;-2.264;2023-06-19T04:26:16;16.10;99.90
6357;DHT22;3211;53.452;-2.264;2023-06-19T04:28:58;16.10;99.90
6357;DHT22;3211;53.452;-2.264;2023-06-19T04:31:41;16.10;99.90
6357;DHT22;3211;53.452;-2.264;2023-06-19T04:34:23;16.10;99.90
6357;DHT22;3211;53.452;-2.264;2023-06-19T04:37:07;16.20;99.90
6357;DHT22;3211;53.452;-2.264;2023-06-19T04:39:49;16.20;99.90
6357;DHT22;3211;53.452;-2.264;2023-06-19T04:42:31;16.20;99.90
6357;DHT22;3211;53.452;-2.264;2023-06-19T04:45:13;16.20;99.90
6357;DHT22;3211;53.452;-2.264;2023-06-19T04:47:55;16.30;99.90
6357;DHT22;3211;53.452;-2.264;2023-06-19T04:50:37;16.20;99.90
6357;DHT22;3211;53.452;-2.264;2023-06-19T04:53:21;16.20;99.90
6357;DHT22;3211;53.452;-2.264;2023-06-19T04:56:03;16.20;99.90
6357;DHT22;3211;53.452;-2.264;2023-06-19T04:58:45;16.20;99.90
6357;DHT22;3211;53.452;-2.264;2023-06-19T05:01:27;16.10;99.90
6357;DHT22;3211;53.452;-2.264;2023-06-19T05:04:10;16.10;99.90
6357;DHT22;3211;53.452;-2.264;2023-06-19T05:06:52;15.90;99.90
6357;DHT22;3211;53.452;-2.264;2023-06-19T05:09:36;15.90;99.90
6357;DHT22;3211;53.452;-2.264;2023-06-19T05:12:17;16.00;99.90
6357;DHT22;3211;53.452;-2.264;2023-06-19T05:14:59;16.00;99.90
6357;DHT22;3211;53.452;-2.264;2023-06-19T05:17:41;16.00;99.90
6357;DHT22;3211;53.452;-2.264;2023-06-19T05:20:26;16.20;99.90
6357;DHT22;3211;53.452;-2.264;2023-06-19T05:23:08;16.10;99.90
6357;DHT22;3211;53.452;-2.264;2023-06-19T05:25:51;15.90;99.90
6357;DHT22;3211;53.452;-2.264;2023-06-19T05:28:34;16.10;99.90
6357;DHT22;3211;53.452;-2.264;2023-06-19T05:31:15;16.00;99.90
6357;DHT22;3211;53.452;-2.264;2023-06-19T05:33:58;16.10;99.90
6357;DHT22;3211;53.452;-2.264;2023-06-19T05:36:40;16.00;99.90
6357;DHT22;3211;53.452;-2.264;2023-06-19T05:39:27;16.10;99.90
6357;DHT22;3211;53.452;-2.264;2023-06-19T05:42:10;16.20;99.90
6357;DHT22;3211;53.452;-2.264;2023-06-19T05:44:52;16.10;99.90
6357;DHT22;3211;53.452;-2.264;2023-06-19T05:47:34;16.00;99.90
6357;DHT22;3211;53.452;-2.264;2023-06-19T05:50:16;16.10;99.90
6357;DHT22;3211;53.452;-2.264;2023-06-19T05:52:58;16.10;99.90
6357;DHT22;3211;53.452;-2.264;2023-06-19T05:55:40;16.10;99.90
6357;DHT22;3211;53.452;-2.264;2023-06-19T05:58:23;16.20;99.90
6357;DHT22;3211;53.452;-2.264;2023-06-19T06:01:06;16.30;99.90
6357;DHT22;3211;53.452;-2.264;2023-06-19T06:03:48;16.40;99.90
6357;DHT22;3211;53.452;-2.264;2023-06-19T06:06:30;16.50;99.90
6357;DHT22;3211;53.452;-2.264;2023-06-19T06:09:12;16.60;99.90
6357;DHT22;3211;53.452;-2.264;2023-06-19T06:11:55;16.60;99.90
6357;DHT22;3211;53.452;-2.264;2023-06-19T06:14:40;16.60;99.90
6357;DHT22;3211;53.452;-2.264;2023-06-19T06:17:22;16.70;99.90
6357;DHT22;3211;53.452;-2.264;2023-06-19T06:20:05;16.70;99.90
6357;DHT22;3211;53.452;-2.264;2023-06-19T06:22:53;16.90;99.90
6357;DHT22;3211;53.452;-2.264;2023-06-19T06:25:35;17.10;99.90
6357;DHT22;3211;53.452;-2.264;2023-06-19T06:28:17;17.20;99.90
6357;DHT22;3211;53.452;-2.264;2023-06-19T06:31:00;17.30;99.90
6357;DHT22;3211;53.452;-2.264;2023-06-19T06:33:42;17.20;99.90
6357;DHT22;3211;53.452;-2.264;2023-06-19T06:36:24;17.10;99.90
6357;DHT22;3211;53.452;-2.264;2023-06-19T06:39:06;17.20;99.90
6357;DHT22;3211;53.452;-2.264;2023-06-19T06:41:48;17.20;99.90
6357;DHT22;3211;53.452;-2.264;2023-06-19T06:44:30;17.30;99.90
6357;DHT22;3211;53.452;-2.264;2023-06-19T06:47:13;17.20;99.90
6357;DHT22;3211;53.452;-2.264;2023-06-19T06:49:55;17.20;99.90
6357;DHT22;3211;53.452;-2.264;2023-06-19T06:52:37;17.10;99.90
6357;DHT22;3211;53.452;-2.264;2023-06-19T06:55:20;17.10;99.90
6357;DHT22;3211;53.452;-2.264;2023-06-19T06:58:02;17.10;99.90
6357;DHT22;3211;53.452;-2.264;2023-06-19T07:00:43;17.00;99.90
6357;DHT22;3211;53.452;-2.264;2023-06-19T07:03:27;17.10;99.90
6357;DHT22;3211;53.452;-2.264;2023-06-19T07:06:10;17.00;99.90
6357;DHT22;3211;53.452;-2.264;2023-06-19T07:08:52;17.20;99.90
6357;DHT22;3211;53.452;-2.264;2023-06-19T07:11:34;17.30;99.90
6357;DHT22;3211;53.452;-2.264;2023-06-19T07:14:16;17.40;99.90
6357;DHT22;3211;53.452;-2.264;2023-06-19T07:17:02;17.20;99.90
6357;DHT22;3211;53.452;-2.264;2023-06-19T07:19:45;17.20;99.90
6357;DHT22;3211;53.452;-2.264;2023-06-19T07:22:27;17.30;99.90
6357;DHT22;3211;53.452;-2.264;2023-06-19T07:25:10;17.40;99.90
6357;DHT22;3211;53.452;-2.264;2023-06-19T07:27:52;17.60;99.90
6357;DHT22;3211;53.452;-2.264;2023-06-19T07:30:34;17.30;99.90
6357;DHT22;3211;53.452;-2.264;2023-06-19T07:33:16;17.40;99.90
6357;DHT22;3211;53.452;-2.264;2023-06-19T07:35:59;17.50;99.90
6357;DHT22;3211;53.452;-2.264;2023-06-19T07:38:43;17.60;99.90
6357;DHT22;3211;53.452;-2.264;2023-06-19T07:41:25;17.50;99.90
6357;DHT22;3211;53.452;-2.264;2023-06-19T07:44:07;17.50;99.90
6357;DHT22;3211;53.452;-2.264;2023-06-19T07:46:49;17.50;99.90
6357;DHT22;3211;53.452;-2.264;2023-06-19T07:49:31;17.40;99.90
6357;DHT22;3211;53.452;-2.264;2023-06-19T07:52:14;17.40;99.90
6357;DHT22;3211;53.452;-2.264;2023-06-19T07:54:57;17.60;99.90
6357;DHT22;3211;53.452;-2.264;2023-06-19T07:57:39;17.70;99.90
6357;DHT22;3211;53.452;-2.264;2023-06-19T08:00:21;17.90;99.90
6357;DHT22;3211;53.452;-2.264;2023-06-19T08:03:03;18.00;99.90
6357;DHT22;3211;53.452;-2.264;2023-06-19T08:05:45;18.00;99.90
6357;DHT22;3211;53.452;-2.264;2023-06-19T08:08:29;18.20;99.90
6357;DHT22;3211;53.452;-2.264;2023-06-19T08:11:10;18.30;99.90
6357;DHT22;3211;53.452;-2.264;2023-06-19T08:13:52;18.40;99.90
6357;DHT22;3211;53.452;-2.264;2023-06-19T08:16:34;18.50;99.90
6357;DHT22;3211;53.452;-2.264;2023-06-19T08:19:16;18.60;99.90
6357;DHT22;3211;53.452;-2.264;2023-06-19T08:21:58;18.70;99.90
6357;DHT22;3211;53.452;-2.264;2023-06-19T08:24:41;18.80;99.90
6357;DHT22;3211;53.452;-2.264;2023-06-19T08:27:23;18.80;99.90
6357;DHT22;3211;53.452;-2.264;2023-06-19T08:30:06;18.80;99.90
6357;DHT22;3211;53.452;-2.264;2023-06-19T08:32:48;18.70;99.90
6357;DHT22;3211;53.452;-2.264;2023-06-19T08:35:30;18.90;99.90
6357;DHT22;3211;53.452;-2.264;2023-06-19T08:38:12;19.20;99.90
6357;DHT22;3211;53.452;-2.264;2023-06-19T08:40:55;19.30;99.90
6357;DHT22;3211;53.452;-2.264;2023-06-19T08:43:37;19.40;99.90
6357;DHT22;3211;53.452;-2.264;2023-06-19T08:46:21;19.50;99.90
6357;DHT22;3211;53.452;-2.264;2023-06-19T08:49:03;19.50;99.90
6357;DHT22;3211;53.452;-2.264;2023-06-19T08:51:46;19.20;99.90
6357;DHT22;3211;53.452;-2.264;2023-06-19T08:54:28;19.30;99.90
6357;DHT22;3211;53.452;-2.264;2023-06-19T08:57:12;19.50;99.90
6357;DHT22;3211;53.452;-2.264;2023-06-19T08:59:53;19.60;99.90
6357;DHT22;3211;53.452;-2.264;2023-06-19T09:02:46;19.70;99.90
6357;DHT22;3211;53.452;-2.264;2023-06-19T09:05:28;19.90;99.90
6357;DHT22;3211;53.452;-2.264;2023-06-19T09:08:13;20.00;99.90
6357;DHT22;3211;53.452;-2.264;2023-06-19T09:11:00;19.80;99.90
6357;DHT22;3211;53.452;-2.264;2023-06-19T09:13:43;19.80;99.90
6357;DHT22;3211;53.452;-2.264;2023-06-19T09:16:36;19.80;99.90
6357;DHT22;3211;53.452;-2.264;2023-06-19T09:19:20;20.00;99.90
6357;DHT22;3211;53.452;-2.264;2023-06-19T09:22:04;20.10;99.90
6357;DHT22;3211;53.452;-2.264;2023-06-19T09:24:47;20.10;99.90
6357;DHT22;3211;53.452;-2.264;2023-06-19T09:27:32;20.30;99.90
6357;DHT22;3211;53.452;-2.264;2023-06-19T09:30:16;20.10;99.90
6357;DHT22;3211;53.452;-2.264;2023-06-19T09:33:06;20.20;99.90
6357;DHT22;3211;53.452;-2.264;2023-06-19T09:35:49;20.00;99.90
6357;DHT22;3211;53.452;-2.264;2023-06-19T09:38:32;20.10;99.90
6357;DHT22;3211;53.452;-2.264;2023-06-19T09:41:15;20.20;99.90
6357;DHT22;3211;53.452;-2.264;2023-06-19T09:43:59;20.30;99.90
6357;DHT22;3211;53.452;-2.264;2023-06-19T09:46:44;20.40;99.90
6357;DHT22;3211;53.452;-2.264;2023-06-19T09:49:28;20.60;99.90
6357;DHT22;3211;53.452;-2.264;2023-06-19T09:52:13;20.50;99.90
6357;DHT22;3211;53.452;-2.264;2023-06-19T09:54:56;20.40;99.90
6357;DHT22;3211;53.452;-2.264;2023-06-19T09:57:39;20.60;99.90
6357;DHT22;3211;53.452;-2.264;2023-06-19T10:00:21;20.70;99.90
6357;DHT22;3211;53.452;-2.264;2023-06-19T10:03:13;20.60;99.90
6357;DHT22;3211;53.452;-2.264;2023-06-19T10:05:58;20.60;99.90
6357;DHT22;3211;53.452;-2.264;2023-06-19T10:08:42;20.90;99.90
6357;DHT22;3211;53.452;-2.264;2023-06-19T10:11:24;20.90;99.90
6357;DHT22;3211;53.452;-2.264;2023-06-19T10:14:08;21.10;99.90
6357;DHT22;3211;53.452;-2.264;2023-06-19T10:16:49;21.00;99.90
6357;DHT22;3211;53.452;-2.264;2023-06-19T10:19:33;21.00;99.90
6357;DHT22;3211;53.452;-2.264;2023-06-19T10:22:20;21.00;99.90
6357;DHT22;3211;53.452;-2.264;2023-06-19T10:25:02;21.00;99.90
6357;DHT22;3211;53.452;-2.264;2023-06-19T10:27:45;21.00;99.90
6357;DHT22;3211;53.452;-2.264;2023-06-19T10:30:27;21.20;99.90
6357;DHT22;3211;53.452;-2.264;2023-06-19T10:33:10;21.20;99.90
6357;DHT22;3211;53.452;-2.264;2023-06-19T10:35:53;20.90;99.90
6357;DHT22;3211;53.452;-2.264;2023-06-19T10:38:35;20.90;99.90
6357;DHT22;3211;53.452;-2.264;2023-06-19T10:41:18;21.20;99.90
6357;DHT22;3211;53.452;-2.264;2023-06-19T10:44:02;21.70;99.90
6357;DHT22;3211;53.452;-2.264;2023-06-19T10:46:44;22.00;99.90
6357;DHT22;3211;53.452;-2.264;2023-06-19T10:49:27;22.20;99.90
6357;DHT22;3211;53.452;-2.264;2023-06-19T10:52:10;22.20;99.90
6357;DHT22;3211;53.452;-2.264;2023-06-19T10:54:53;22.40;99.90
6357;DHT22;3211;53.452;-2.264;2023-06-19T10:57:35;22.40;94.80
6357;DHT22;3211;53.452;-2.264;2023-06-19T11:00:25;22.10;98.60
6357;DHT22;3211;53.452;-2.264;2023-06-19T11:03:07;22.00;98.50
6357;DHT22;3211;53.452;-2.264;2023-06-19T11:05:49;22.30;99.90
6357;DHT22;3211;53.452;-2.264;2023-06-19T11:08:34;22.30;84.90
6357;DHT22;3211;53.452;-2.264;2023-06-19T11:11:16;22.40;81.50
6357;DHT22;3211;53.452;-2.264;2023-06-19T11:13:58;23.00;82.40
6357;DHT22;3211;53.452;-2.264;2023-06-19T11:16:41;22.70;65.30
6357;DHT22;3211;53.452;-2.264;2023-06-19T11:19:30;22.20;82.20
6357;DHT22;3211;53.452;-2.264;2023-06-19T11:22:13;22.20;88.60
6357;DHT22;3211;53.452;-2.264;2023-06-19T11:25:02;22.10;84.80
6357;DHT22;3211;53.452;-2.264;2023-06-19T11:27:45;22.00;81.50
6357;DHT22;3211;53.452;-2.264;2023-06-19T11:30:33;21.80;83.50
6357;DHT22;3211;53.452;-2.264;2023-06-19T11:33:17;21.50;91.90
6357;DHT22;3211;53.452;-2.264;2023-06-19T11:36:03;21.60;94.40
6357;DHT22;3211;53.452;-2.264;2023-06-19T11:38:45;21.50;99.90
6357;DHT22;3211;53.452;-2.264;2023-06-19T11:41:29;22.10;93.80
6357;DHT22;3211;53.452;-2.264;2023-06-19T11:44:11;22.20;92.60
6357;DHT22;3211;53.452;-2.264;2023-06-19T11:46:56;22.30;97.00
6357;DHT22;3211;53.452;-2.264;2023-06-19T11:49:39;22.30;69.60
6357;DHT22;3211;53.452;-2.264;2023-06-19T11:52:21;22.50;68.00
6357;DHT22;3211;53.452;-2.264;2023-06-19T11:55:04;22.90;53.30
6357;DHT22;3211;53.452;-2.264;2023-06-19T11:57:47;23.10;38.70
6357;DHT22;3211;53.452;-2.264;2023-06-19T12:00:29;23.30;34.20
6357;DHT22;3211;53.452;-2.264;2023-06-19T12:03:14;23.30;38.30
6357;DHT22;3211;53.452;-2.264;2023-06-19T12:05:56;24.20;27.70
6357;DHT22;3211;53.452;-2.264;2023-06-19T12:08:38;24.00;22.70
6357;DHT22;3211;53.452;-2.264;2023-06-19T12:11:20;24.10;20.90
6357;DHT22;3211;53.452;-2.264;2023-06-19T12:14:03;23.90;18.20
6357;DHT22;3211;53.452;-2.264;2023-06-19T12:16:45;23.50;30.30
6357;DHT22;3211;53.452;-2.264;2023-06-19T12:19:28;23.30;41.20
6357;DHT22;3211;53.452;-2.264;2023-06-19T12:22:10;23.30;39.10
6357;DHT22;3211;53.452;-2.264;2023-06-19T12:24:52;22.90;37.50
6357;DHT22;3211;53.452;-2.264;2023-06-19T12:27:34;22.90;52.10
6357;DHT22;3211;53.452;-2.264;2023-06-19T12:30:17;22.00;84.50
6357;DHT22;3211;53.452;-2.264;2023-06-19T12:32:59;21.30;99.90
6357;DHT22;3211;53.452;-2.264;2023-06-19T12:35:44;21.00;99.90
6357;DHT22;3211;53.452;-2.264;2023-06-19T12:38:27;20.80;99.90
6357;DHT22;3211;53.452;-2.264;2023-06-19T12:41:09;20.80;99.90
6357;DHT22;3211;53.452;-2.264;2023-06-19T12:43:51;21.60;99.90
6357;DHT22;3211;53.452;-2.264;2023-06-19T12:46:34;22.20;99.90
6357;DHT22;3211;53.452;-2.264;2023-06-19T12:49:16;22.60;99.90
6357;DHT22;3211;53.452;-2.264;2023-06-19T12:51:58;22.80;99.90
6357;DHT22;3211;53.452;-2.264;2023-06-19T12:54:40;23.30;99.90
6357;DHT22;3211;53.452;-2.264;2023-06-19T12:57:23;23.90;99.90
6357;DHT22;3211;53.452;-2.264;2023-06-19T13:00:08;23.90;92.60
6357;DHT22;3211;53.452;-2.264;2023-06-19T13:02:51;23.50;98.10
6357;DHT22;3211;53.452;-2.264;2023-06-19T13:05:33;23.20;98.00
6357;DHT22;3211;53.452;-2.264;2023-06-19T13:08:15;23.40;97.70
6357;DHT22;3211;53.452;-2.264;2023-06-19T13:10:57;24.20;94.60
6357;DHT22;3211;53.452;-2.264;2023-06-19T13:13:39;24.40;85.40
6357;DHT22;3211;53.452;-2.264;2023-06-19T13:16:21;24.30;47.30
6357;DHT22;3211;53.452;-2.264;2023-06-19T13:19:08;24.10;46.90
6357;DHT22;3211;53.452;-2.264;2023-06-19T13:21:53;23.80;52.70
6357;DHT22;3211;53.452;-2.264;2023-06-19T13:24:35;24.00;46.30
6357;DHT22;3211;53.452;-2.264;2023-06-19T13:27:17;24.90;21.40
6357;DHT22;3211;53.452;-2.264;2023-06-19T13:30:00;25.10;1.00
6357;DHT22;3211;53.452;-2.264;2023-06-19T13:32:42;25.30;1.00
6357;DHT22;3211;53.452;-2.264;2023-06-19T13:35:26;25.30;1.00
6357;DHT22;3211;53.452;-2.264;2023-06-19T13:38:08;25.80;1.00
6357;DHT22;3211;53.452;-2.264;2023-06-19T13:40:51;25.80;1.00
6357;DHT22;3211;53.452;-2.264;2023-06-19T13:43:33;25.80;1.00
6357;DHT22;3211;53.452;-2.264;2023-06-19T13:46:15;25.50;1.00
6357;DHT22;3211;53.452;-2.264;2023-06-19T13:48:57;25.30;1.00
6357;DHT22;3211;53.452;-2.264;2023-06-19T13:51:40;24.70;1.00
6357;DHT22;3211;53.452;-2.264;2023-06-19T13:54:24;24.50;1.00
6357;DHT22;3211;53.452;-2.264;2023-06-19T13:57:07;25.00;1.00
6357;DHT22;3211;53.452;-2.264;2023-06-19T13:59:49;25.00;1.00
6357;DHT22;3211;53.452;-2.264;2023-06-19T14:02:31;24.50;1.00
6357;DHT22;3211;53.452;-2.264;2023-06-19T14:05:13;24.30;1.00
6357;DHT22;3211;53.452;-2.264;2023-06-19T14:07:57;24.10;1.00
6357;DHT22;3211;53.452;-2.264;2023-06-19T14:10:39;24.10;1.00
6357;DHT22;3211;53.452;-2.264;2023-06-19T14:13:20;24.60;1.00
6357;DHT22;3211;53.452;-2.264;2023-06-19T14:16:03;24.20;1.00
6357;DHT22;3211;53.452;-2.264;2023-06-19T14:18:44;24.00;1.00
6357;DHT22;3211;53.452;-2.264;2023-06-19T14:21:26;24.00;1.00
6357;DHT22;3211;53.452;-2.264;2023-06-19T14:24:10;23.60;1.00
6357;DHT22;3211;53.452;-2.264;2023-06-19T14:26:52;23.40;5.60
6357;DHT22;3211;53.452;-2.264;2023-06-19T14:29:34;22.90;26.50
6357;DHT22;3211;53.452;-2.264;2023-06-19T14:32:16;22.50;56.30
6357;DHT22;3211;53.452;-2.264;2023-06-19T14:34:58;22.10;81.80
6357;DHT22;3211;53.452;-2.264;2023-06-19T14:37:40;22.20;90.10
6357;DHT22;3211;53.452;-2.264;2023-06-19T14:40:23;22.40;90.10
6357;DHT22;3211;53.452;-2.264;2023-06-19T14:43:05;22.60;76.10
6357;DHT22;3211;53.452;-2.264;2023-06-19T14:45:47;22.60;82.80
6357;DHT22;3211;53.452;-2.264;2023-06-19T14:48:29;22.90;71.80
6357;DHT22;3211;53.452;-2.264;2023-06-19T14:51:11;22.90;74.80
6357;DHT22;3211;53.452;-2.264;2023-06-19T14:53:53;23.30;67.40
6357;DHT22;3211;53.452;-2.264;2023-06-19T14:56:37;26.90;1.00
6357;DHT22;3211;53.452;-2.264;2023-06-19T14:59:19;28.80;1.00
6357;DHT22;3211;53.452;-2.264;2023-06-19T15:02:01;27.40;1.00
6357;DHT22;3211;53.452;-2.264;2023-06-19T15:04:44;25.60;1.00
6357;DHT22;3211;53.452;-2.264;2023-06-19T15:07:26;27.00;1.00
6357;DHT22;3211;53.452;-2.264;2023-06-19T15:10:08;28.10;1.00
6357;DHT22;3211;53.452;-2.264;2023-06-19T15:12:52;29.20;1.00
6357;DHT22;3211;53.452;-2.264;2023-06-19T15:15:34;31.40;1.00
6357;DHT22;3211;53.452;-2.264;2023-06-19T15:18:16;32.70;1.00
6357;DHT22;3211;53.452;-2.264;2023-06-19T15:20:58;32.80;99.90
6357;DHT22;3211;53.452;-2.264;2023-06-19T15:23:40;32.10;1.00
6357;DHT22;3211;53.452;-2.264;2023-06-19T15:26:22;32.50;99.90
6357;DHT22;3211;53.452;-2.264;2023-06-19T15:29:05;33.20;99.90
6357;DHT22;3211;53.452;-2.264;2023-06-19T15:31:47;33.30;99.90
6357;DHT22;3211;53.452;-2.264;2023-06-19T15:34:29;32.80;99.90
6357;DHT22;3211;53.452;-2.264;2023-06-19T15:37:11;31.20;1.00
6357;DHT22;3211;53.452;-2.264;2023-06-19T15:39:53;30.10;1.00
6357;DHT22;3211;53.452;-2.264;2023-06-19T15:42:36;29.70;1.00
6357;DHT22;3211;53.452;-2.264;2023-06-19T15:45:19;27.50;1.00
6357;DHT22;3211;53.452;-2.264;2023-06-19T15:48:01;26.00;1.00
6357;DHT22;3211;53.452;-2.264;2023-06-19T15:50:43;25.00;1.00
6357;DHT22;3211;53.452;-2.264;2023-06-19T15:53:26;24.70;1.00
6357;DHT22;3211;53.452;-2.264;2023-06-19T15:56:08;24.40;1.00
6357;DHT22;3211;53.452;-2.264;2023-06-19T15:58:49;25.00;1.00
6357;DHT22;3211;53.452;-2.264;2023-06-19T16:01:33;26.20;1.00
6357;DHT22;3211;53.452;-2.264;2023-06-19T16:04:15;26.90;1.00
6357;DHT22;3211;53.452;-2.264;2023-06-19T16:06:57;25.80;1.00
6357;DHT22;3211;53.452;-2.264;2023-06-19T16:09:40;24.40;1.00
6357;DHT22;3211;53.452;-2.264;2023-06-19T16:12:22;23.90;3.40
6357;DHT22;3211;53.452;-2.264;2023-06-19T16:15:05;25.10;1.00
6357;DHT22;3211;53.452;-2.264;2023-06-19T16:17:51;24.70;1.00
6357;DHT22;3211;53.452;-2.264;2023-06-19T16:20:34;24.40;1.00
6357;DHT22;3211;53.452;-2.264;2023-06-19T16:23:16;24.20;1.00
6357;DHT22;3211;53.452;-2.264;2023-06-19T16:25:58;25.00;1.00
6357;DHT22;3211;53.452;-2.264;2023-06-19T16:28:40;28.50;1.00
6357;DHT22;3211;53.452;-2.264;2023-06-19T16:31:22;28.70;1.00
6357;DHT22;3211;53.452;-2.264;2023-06-19T16:34:05;26.90;1.00
6357;DHT22;3211;53.452;-2.264;2023-06-19T16:36:47;25.60;1.00
6357;DHT22;3211;53.452;-2.264;2023-06-19T16:39:30;25.50;1.00
6357;DHT22;3211;53.452;-2.264;2023-06-19T16:42:12;25.50;1.00
6357;DHT22;3211;53.452;-2.264;2023-06-19T16:44:56;25.20;1.00
6357;DHT22;3211;53.452;-2.264;2023-06-19T16:47:38;25.10;1.00
6357;DHT22;3211;53.452;-2.264;2023-06-19T16:50:21;24.80;1.00
6357;DHT22;3211;53.452;-2.264;2023-06-19T16:53:03;24.70;1.00
6357;DHT22;3211;53.452;-2.264;2023-06-19T16:55:46;24.90;1.00
6357;DHT22;3211;53.452;-2.264;2023-06-19T16:58:29;25.10;1.00
6357;DHT22;3211;53.452;-2.264;2023-06-19T17:01:11;25.50;1.00
6357;DHT22;3211;53.452;-2.264;2023-06-19T17:03:53;25.80;1.00
6357;DHT22;3211;53.452;-2.264;2023-06-19T17:06:37;26.00;1.00
6357;DHT22;3211;53.452;-2.264;2023-06-19T17:09:19;26.00;1.00
6357;DHT22;3211;53.452;-2.264;2023-06-19T17:12:01;26.00;1.00
6357;DHT22;3211;53.452;-2.264;2023-06-19T17:14:42;26.00;1.00
6357;DHT22;3211;53.452;-2.264;2023-06-19T17:17:24;26.10;1.00
6357;DHT22;3211;53.452;-2.264;2023-06-19T17:20:07;25.90;1.00
6357;DHT22;3211;53.452;-2.264;2023-06-19T17:22:54;25.90;1.00
6357;DHT22;3211;53.452;-2.264;2023-06-19T17:25:36;25.70;1.00
6357;DHT22;3211;53.452;-2.264;2023-06-19T17:28:18;25.50;1.00